Time;durP1;ratioP1;P1;durP2;ratioP2;P2;SDS_P1;SDS_P2;PMS_P1;PMS_P2;Temp;Humidity;BMP_temperature;BMP_pressure;BME280_temperature;BME280_humidity;BME280_pressure;Samples;Min_cycle;Max_cycle;Signal;HPM_P1;HPM_P2
2021/11/02 00:01:01;;;;;;;8.90;5.93;;;;;;;;;;5100708;27;20106;-85
2021/11/02 00:03:27;;;;;;;7.20;5.85;;;;;;;;;;5099945;27;20051;-84
2021/11/02 00:05:53;;;;;;;8.27;6.25;;;;;;;;;;5117445;27;20092;-84
2021/11/02 00:08:19;;;;;;;7.30;6.50;;;;;;;;;;5118147;27;20051;-84
2021/11/02 00:10:45;;;;;;;7.68;6.03;;;;;;;;;;5117387;27;20039;-84
2021/11/02 00:13:11;;;;;;;8.23;6.65;;;;;;;;;;5117856;27;20047;-85
2021/11/02 00:19:16;;;;;;;8.02;6.78;;;;;;;;;;5198482;22;20119;-83
2021/11/02 00:21:45;;;;;;;10.25;6.53;;;;;;;;;;5030238;28;20063;-84
2021/11/02 00:24:14;;;;;;;8.80;6.43;;;;;;;;;;5018322;28;20140;-84
2021/11/02 00:26:41;;;;;;;8.38;6.68;;;;;;;;;;5032572;28;20128;-84
2021/11/02 00:29:08;;;;;;;9.98;6.90;;;;;;;;;;5033364;28;20132;-84
2021/11/02 00:31:35;;;;;;;9.07;6.65;;;;;;;;;;5027919;28;20041;-84
2021/11/02 00:34:01;;;;;;;8.32;6.60;;;;;;;;;;5032415;28;20049;-83
2021/11/02 00:42:58;;;;;;;9.90;6.72;;;;;;;;;;5223475;22;20064;-83
2021/11/02 00:45:31;;;;;;;10.82;7.10;;;;;;;;;;5032481;28;20056;-84
2021/11/02 00:47:58;;;;;;;8.00;6.93;;;;;;;;;;5031678;28;20102;-84
2021/11/02 00:50:24;;;;;;;10.15;7.32;;;;;;;;;;5049120;28;20091;-85
2021/11/02 00:52:50;;;;;;;8.13;7.00;;;;;;;;;;5024407;28;20092;-83
2021/11/02 00:55:16;;;;;;;10.95;7.82;;;;;;;;;;5012970;28;20053;-83
2021/11/02 00:57:42;;;;;;;9.85;7.60;;;;;;;;;;5028765;28;20121;-83
2021/11/02 01:00:10;;;;;;;12.32;8.07;;;;;;;;;;5029233;28;20041;-83
2021/11/02 01:02:36;;;;;;;10.48;7.82;;;;;;;;;;5013668;28;20081;-85
2021/11/02 01:05:03;;;;;;;9.73;7.68;;;;;;;;;;5033293;28;20080;-84
2021/11/02 01:07:29;;;;;;;11.80;7.50;;;;;;;;;;5032705;28;20409;-83
2021/11/02 01:09:55;;;;;;;10.68;7.90;;;;;;;;;;5024116;28;20051;-83
2021/11/02 01:12:21;;;;;;;9.40;7.40;;;;;;;;;;5053302;28;20152;-83
2021/11/02 01:14:47;;;;;;;9.82;8.40;;;;;;;;;;5036057;28;20048;-83
2021/11/02 01:17:13;;;;;;;9.98;8.20;;;;;;;;;;5053094;28;20045;-84
2021/11/02 01:19:40;;;;;;;9.00;7.78;;;;;;;;;;5046223;28;20102;-84
2021/11/02 01:22:06;;;;;;;11.95;8.13;;;;;;;;;;5032659;28;20102;-84
2021/11/02 01:24:33;;;;;;;11.10;7.50;;;;;;;;;;5016479;28;20140;-83
2021/11/02 01:26:59;;;;;;;10.45;7.72;;;;;;;;;;5032090;28;20041;-83
2021/11/02 01:29:25;;;;;;;11.52;8.48;;;;;;;;;;5018139;28;20079;-84
2021/11/02 01:31:51;;;;;;;10.90;7.50;;;;;;;;;;5015330;28;20136;-83
2021/11/02 01:34:18;;;;;;;9.40;7.70;;;;;;;;;;5016353;28;20042;-84
2021/11/02 01:36:44;;;;;;;10.30;8.18;;;;;;;;;;5016055;28;20043;-84
2021/11/02 01:39:10;;;;;;;10.07;8.73;;;;;;;;;;5031930;28;20483;-83
2021/11/02 01:41:36;;;;;;;12.75;8.85;;;;;;;;;;5015795;28;20053;-84
2021/11/02 01:44:03;;;;;;;14.18;9.32;;;;;;;;;;5016075;28;20053;-84
2021/11/02 01:46:34;;;;;;;12.52;9.45;;;;;;;;;;5016068;28;20054;-83
2021/11/02 01:49:01;;;;;;;10.80;8.63;;;;;;;;;;5016180;28;20060;-84
2021/11/02 01:51:29;;;;;;;13.60;9.38;;;;;;;;;;5000817;28;20370;-83
2021/11/02 01:53:56;;;;;;;13.57;10.35;;;;;;;;;;5015407;28;20559;-83
2021/11/02 01:56:22;;;;;;;11.05;8.98;;;;;;;;;;5032572;28;20053;-83
2021/11/02 01:58:52;;;;;;;11.75;8.57;;;;;;;;;;5015224;28;20045;-84
2021/11/02 02:01:33;;;;;;;11.60;9.00;;;;;;;;;;5021557;28;20042;-84
2021/11/02 02:04:29;;;;;;;12.98;9.23;;;;;;;;;;4995862;28;20359;-84
2021/11/02 02:06:58;;;;;;;11.23;9.05;;;;;;;;;;4960281;28;20101;-83
2021/11/02 02:09:30;;;;;;;13.40;9.13;;;;;;;;;;5015187;28;20092;-84
2021/11/02 02:12:23;;;;;;;13.50;9.85;;;;;;;;;;5031996;28;20171;-83
2021/11/02 02:14:53;;;;;;;13.30;9.38;;;;;;;;;;5029395;28;20053;-84
2021/11/02 02:17:21;;;;;;;11.57;9.45;;;;;;;;;;5015751;28;20453;-83
2021/11/02 02:19:47;;;;;;;12.30;9.82;;;;;;;;;;5031198;28;20508;-83
2021/11/02 02:22:32;;;;;;;11.88;9.65;;;;;;;;;;5031895;28;20099;-84
2021/11/02 02:25:14;;;;;;;12.45;9.88;;;;;;;;;;5015053;28;20056;-83
2021/11/02 02:27:59;;;;;;;12.32;9.88;;;;;;;;;;5014033;28;20046;-84
2021/11/02 02:30:27;;;;;;;12.27;9.23;;;;;;;;;;5015453;28;20049;-83
2021/11/02 02:32:54;;;;;;;13.77;9.60;;;;;;;;;;5031068;28;20049;-84
2021/11/02 02:35:22;;;;;;;11.45;9.52;;;;;;;;;;5015337;28;20041;-84
2021/11/02 02:37:49;;;;;;;13.15;10.35;;;;;;;;;;5030174;28;20037;-83
2021/11/02 02:40:15;;;;;;;12.55;9.55;;;;;;;;;;5040234;28;20076;-84
2021/11/02 02:42:42;;;;;;;14.18;10.13;;;;;;;;;;5050335;28;20125;-83
2021/11/02 02:45:08;;;;;;;12.80;10.07;;;;;;;;;;5050970;28;20656;-83
2021/11/02 02:47:37;;;;;;;12.30;9.95;;;;;;;;;;5051009;28;20488;-83
2021/11/02 02:50:05;;;;;;;15.07;10.50;;;;;;;;;;5026893;28;20099;-83
2021/11/02 02:52:32;;;;;;;14.27;11.07;;;;;;;;;;5014537;28;20056;-83
2021/11/02 02:54:58;;;;;;;14.65;10.88;;;;;;;;;;5030760;28;20107;-83
2021/11/02 02:57:25;;;;;;;14.05;10.13;;;;;;;;;;5011320;28;20041;-84
2021/11/02 02:59:52;;;;;;;12.45;9.65;;;;;;;;;;4999900;28;20507;-84
2021/11/02 03:02:19;;;;;;;15.82;11.85;;;;;;;;;;5014515;28;20115;-83
2021/11/02 03:04:52;;;;;;;16.08;11.85;;;;;;;;;;5013838;28;20463;-83
2021/11/02 03:07:19;;;;;;;15.48;10.82;;;;;;;;;;5030863;28;20072;-83
2021/11/02 03:09:46;;;;;;;18.13;11.35;;;;;;;;;;5034514;28;20056;-84
2021/11/02 03:12:13;;;;;;;14.98;11.05;;;;;;;;;;5050803;28;20080;-83
2021/11/02 03:15:46;;;;;;;13.88;11.38;;;;;;;;;;5048798;28;20095;-87
2021/11/02 03:17:39;;;;;;;15.60;12.00;;;;;;;;;;5019916;28;20059;-83
2021/11/02 03:56:02;;;;;;;15.73;12.07;;;;;;;;;;5030059;28;20053;-83
2021/11/02 03:58:32;;;;;;;16.40;12.40;;;;;;;;;;5029226;28;20088;-84
2021/11/02 04:28:40;;;;;;;18.05;13.73;;;;;;;;;;5048744;28;20395;-84
2021/11/02 05:06:55;;;;;;;23.55;16.88;;;;;;;;;;4990828;28;20575;-84
2021/11/02 05:47:08;;;;;;;33.67;22.07;;;;;;;;;;5028072;28;20099;-85
2021/11/02 06:00:06;;;;;;;34.63;21.85;;;;;;;;;;5049383;28;20057;-84
2021/11/02 06:05:26;;;;;;;32.65;21.80;;;;;;;;;;5036609;28;20156;-88
2021/11/02 06:08:21;;;;;;;34.45;22.05;;;;;;;;;;5033052;28;20049;-87
2021/11/02 06:11:17;;;;;;;32.83;21.02;;;;;;;;;;5034023;28;20057;-86
2021/11/02 06:30:21;;;;;;;35.75;22.25;;;;;;;;;;5034665;28;20127;-85
2021/11/02 06:33:02;;;;;;;39.20;22.88;;;;;;;;;;5015446;28;20041;-85
2021/11/02 06:35:35;;;;;;;36.20;21.27;;;;;;;;;;5006357;28;20182;-88
2021/11/02 06:44:00;;;;;;;35.03;21.10;;;;;;;;;;5012856;28;20068;-85
2021/11/02 07:16:30;;;;;;;41.10;21.43;;;;;;;;;;5037359;28;20061;-85
2021/11/02 07:18:38;;;;;;;39.10;19.60;;;;;;;;;;5030302;28;20111;-84
2021/11/02 08:46:55;;;;;;;31.17;19.90;;;;;;;;;;5028952;28;20050;-88
2021/11/02 08:49:21;;;;;;;31.83;20.00;;;;;;;;;;5029772;28;20449;-85
2021/11/02 08:51:48;;;;;;;38.05;20.73;;;;;;;;;;5029628;28;20474;-88
2021/11/02 08:54:15;;;;;;;37.13;21.00;;;;;;;;;;5029991;28;20049;-85
2021/11/02 08:56:41;;;;;;;33.80;20.83;;;;;;;;;;5046930;28;20041;-85
2021/11/02 08:59:07;;;;;;;33.95;21.13;;;;;;;;;;5032872;28;20566;-85
2021/11/02 09:01:37;;;;;;;30.23;20.17;;;;;;;;;;5050127;28;20080;-85
2021/11/02 09:04:04;;;;;;;32.13;20.10;;;;;;;;;;5031753;28;20052;-86
2021/11/02 09:06:31;;;;;;;28.70;18.23;;;;;;;;;;5012796;28;20048;-85
2021/11/02 09:08:59;;;;;;;28.23;18.20;;;;;;;;;;5012555;28;20050;-85
2021/11/02 09:11:26;;;;;;;24.08;16.58;;;;;;;;;;5029400;28;20048;-87
2021/11/02 09:13:54;;;;;;;25.98;17.33;;;;;;;;;;5022359;28;20040;-87
2021/11/02 09:16:21;;;;;;;28.50;17.52;;;;;;;;;;5032323;28;20045;-86
2021/11/02 09:18:49;;;;;;;26.92;17.75;;;;;;;;;;5029334;28;20088;-86
2021/11/02 09:21:15;;;;;;;26.30;18.00;;;;;;;;;;5012233;28;20512;-86
2021/11/02 09:23:45;;;;;;;31.88;19.00;;;;;;;;;;5014550;28;20508;-86
2021/11/02 09:26:15;;;;;;;28.20;19.35;;;;;;;;;;5016245;28;20440;-86
2021/11/02 09:28:42;;;;;;;29.42;19.38;;;;;;;;;;5016908;28;20440;-86
2021/11/02 09:31:08;;;;;;;29.02;19.20;;;;;;;;;;5032533;28;20131;-86
2021/11/02 09:33:34;;;;;;;28.98;19.30;;;;;;;;;;5017230;28;20037;-86
2021/11/02 09:36:02;;;;;;;29.52;19.40;;;;;;;;;;5032679;28;20102;-86
2021/11/02 09:38:35;;;;;;;29.67;18.20;;;;;;;;;;5015263;28;20584;-87
2021/11/02 09:41:08;;;;;;;31.33;19.50;;;;;;;;;;5016386;28;20053;-86
2021/11/02 09:43:44;;;;;;;30.08;19.55;;;;;;;;;;5032131;28;20829;-86
2021/11/02 09:46:20;;;;;;;32.67;20.25;;;;;;;;;;5015771;28;20053;-86
2021/11/02 09:49:01;;;;;;;30.88;20.10;;;;;;;;;;5016596;28;20099;-86
2021/11/02 09:51:48;;;;;;;34.78;20.83;;;;;;;;;;5032756;28;20041;-86
2021/11/02 09:54:22;;;;;;;28.85;19.65;;;;;;;;;;5032357;28;20045;-86
2021/11/02 09:56:50;;;;;;;31.42;20.20;;;;;;;;;;5016110;28;20486;-87
2021/11/02 09:59:26;;;;;;;33.60;20.13;;;;;;;;;;5015994;28;20056;-87
2021/11/02 10:02:07;;;;;;;34.63;21.55;;;;;;;;;;5015993;28;20071;-86
2021/11/02 10:04:38;;;;;;;31.40;20.02;;;;;;;;;;5032351;28;20050;-86
2021/11/02 10:07:27;;;;;;;33.00;21.17;;;;;;;;;;5015454;28;20049;-86
2021/11/02 10:09:59;;;;;;;32.50;21.02;;;;;;;;;;5015236;28;20048;-86
2021/11/02 10:12:29;;;;;;;34.33;21.98;;;;;;;;;;5015858;28;20060;-87
2021/11/02 10:15:05;;;;;;;32.30;20.38;;;;;;;;;;5015565;28;20049;-86
2021/11/02 10:17:39;;;;;;;27.90;19.17;;;;;;;;;;5041137;28;20037;-86
2021/11/02 10:20:08;;;;;;;27.77;19.02;;;;;;;;;;5015158;28;20052;-86
2021/11/02 10:22:54;;;;;;;32.10;19.95;;;;;;;;;;5032359;28;20095;-85
2021/11/02 10:25:20;;;;;;;;;;;;;;;;;;5016147;28;20088;-86
2021/11/02 10:27:52;;;;;;;28.35;19.85;;;;;;;;;;5031954;28;19921;-87
2021/11/02 10:30:33;;;;;;;27.13;19.55;;;;;;;;;;5015796;28;20103;-86
2021/11/02 10:33:04;;;;;;;29.85;19.95;;;;;;;;;;5011898;28;20054;-86
2021/11/02 10:35:36;;;;;;;26.35;18.40;;;;;;;;;;5031393;28;20096;-86
2021/11/02 10:38:28;;;;;;;25.38;19.08;;;;;;;;;;5016873;28;20049;-86
2021/11/02 10:41:03;;;;;;;28.75;20.02;;;;;;;;;;5034539;28;20053;-86
2021/11/02 10:43:47;;;;;;;26.77;19.30;;;;;;;;;;5029864;28;20394;-86
2021/11/02 10:46:14;;;;;;;28.10;19.80;;;;;;;;;;5034477;28;20083;-86
2021/11/02 10:48:40;;;;;;;28.67;20.00;;;;;;;;;;5035120;28;20088;-86
2021/11/02 10:51:07;;;;;;;27.83;19.80;;;;;;;;;;5026528;28;20053;-86
2021/11/02 10:53:35;;;;;;;24.58;19.25;;;;;;;;;;5031763;28;20077;-86
2021/11/02 10:56:08;;;;;;;24.00;18.83;;;;;;;;;;5014172;28;20488;-86
2021/11/02 10:58:36;;;;;;;27.27;19.10;;;;;;;;;;5015069;28;20126;-86
2021/11/02 11:01:07;;;;;;;25.67;19.25;;;;;;;;;;5014459;28;20046;-87
2021/11/02 11:03:34;;;;;;;22.50;18.08;;;;;;;;;;5031461;28;20060;-86
2021/11/02 11:06:02;;;;;;;24.30;18.58;;;;;;;;;;5014248;28;20061;-85
2021/11/02 11:08:31;;;;;;;24.02;19.30;;;;;;;;;;5013793;28;20041;-85
2021/11/02 11:10:58;;;;;;;24.98;19.60;;;;;;;;;;5030677;28;20103;-86
2021/11/02 11:13:28;;;;;;;25.65;19.00;;;;;;;;;;5031161;28;20053;-84
2021/11/02 11:16:07;;;;;;;25.88;19.40;;;;;;;;;;5030899;28;20389;-87
2021/11/02 11:18:52;;;;;;;23.08;17.92;;;;;;;;;;5019070;28;20077;-85
2021/11/02 11:21:18;;;;;;;22.70;18.27;;;;;;;;;;5030267;28;20049;-85
2021/11/02 11:23:48;;;;;;;24.25;18.80;;;;;;;;;;5014388;28;20046;-85
2021/11/02 11:26:14;;;;;;;23.23;17.88;;;;;;;;;;5030091;28;20643;-85
2021/11/02 11:28:42;;;;;;;23.77;18.98;;;;;;;;;;5010960;28;20054;-85
2021/11/02 11:31:08;;;;;;;23.13;17.15;;;;;;;;;;5025753;28;20409;-85
2021/11/02 11:33:34;;;;;;;21.80;17.70;;;;;;;;;;5013668;28;20542;-85
2021/11/02 11:36:03;;;;;;;21.23;17.70;;;;;;;;;;5013512;28;20045;-84
2021/11/02 11:38:31;;;;;;;21.33;17.23;;;;;;;;;;5029713;28;20509;-85
2021/11/02 11:40:57;;;;;;;22.35;17.27;;;;;;;;;;5013287;28;20042;-84
2021/11/02 11:43:25;;;;;;;20.27;16.88;;;;;;;;;;5013350;28;20058;-85
2021/11/02 11:45:54;;;;;;;21.98;16.77;;;;;;;;;;5029621;28;20489;-85
2021/11/02 11:48:21;;;;;;;19.73;17.08;;;;;;;;;;5013839;28;20072;-85
2021/11/02 11:50:48;;;;;;;19.10;16.45;;;;;;;;;;5030324;28;20052;-85
2021/11/02 11:53:18;;;;;;;17.92;15.48;;;;;;;;;;5013103;28;20136;-86
2021/11/02 11:55:46;;;;;;;17.45;15.07;;;;;;;;;;5013673;28;20045;-86
2021/11/02 11:58:12;;;;;;;17.58;15.10;;;;;;;;;;5013057;28;20136;-85
2021/11/02 12:00:40;;;;;;;18.15;15.48;;;;;;;;;;5013432;28;20103;-85
2021/11/02 12:03:25;;;;;;;19.48;15.57;;;;;;;;;;5027980;28;20072;-85
2021/11/02 12:06:18;;;;;;;28.35;20.20;;;;;;;;;;5013660;28;20079;-87
2021/11/02 12:08:49;;;;;;;19.98;15.68;;;;;;;;;;5027534;28;20132;-85
2021/11/02 12:11:20;;;;;;;19.08;15.35;;;;;;;;;;5029339;28;20210;-85
2021/11/02 12:13:48;;;;;;;19.65;16.25;;;;;;;;;;5013425;28;20056;-84
2021/11/02 12:16:22;;;;;;;19.80;15.40;;;;;;;;;;5028951;28;20099;-86
2021/11/02 12:18:57;;;;;;;16.67;14.80;;;;;;;;;;5029274;28;20057;-86
2021/11/02 12:21:25;;;;;;;17.65;15.27;;;;;;;;;;5012932;28;20083;-84
2021/11/02 12:23:52;;;;;;;20.27;15.63;;;;;;;;;;5022435;28;20520;-86
2021/11/02 12:26:18;;;;;;;18.60;15.57;;;;;;;;;;5019101;28;20049;-85
2021/11/02 12:28:47;;;;;;;18.15;13.98;;;;;;;;;;4993703;28;20061;-86
2021/11/02 12:31:17;;;;;;;16.85;14.27;;;;;;;;;;5006750;28;20606;-87
2021/11/02 12:33:48;;;;;;;15.45;13.70;;;;;;;;;;5029240;28;20393;-85
2021/11/02 12:36:19;;;;;;;19.30;14.73;;;;;;;;;;5028702;28;20043;-85
2021/11/02 12:38:45;;;;;;;15.75;13.80;;;;;;;;;;5021017;28;20136;-84
2021/11/02 12:41:18;;;;;;;18.65;14.52;;;;;;;;;;5032108;28;20424;-85
2021/11/02 12:43:44;;;;;;;19.17;15.70;;;;;;;;;;5030338;28;20056;-85
2021/11/02 12:46:11;;;;;;;19.23;15.23;;;;;;;;;;5032223;28;20084;-85
2021/11/02 12:48:37;;;;;;;18.48;14.23;;;;;;;;;;5033080;28;20049;-85
2021/11/02 12:51:04;;;;;;;21.05;16.08;;;;;;;;;;5014809;28;20049;-84
2021/11/02 12:53:33;;;;;;;18.27;14.88;;;;;;;;;;5012708;28;20045;-84
2021/11/02 12:56:11;;;;;;;19.63;16.15;;;;;;;;;;5012033;28;20060;-85
2021/11/02 12:58:41;;;;;;;18.23;15.20;;;;;;;;;;5014479;28;20048;-84
2021/11/02 13:01:08;;;;;;;20.25;16.45;;;;;;;;;;5011325;28;20091;-86
2021/11/02 13:03:36;;;;;;;22.33;16.23;;;;;;;;;;5033041;28;20134;-85
2021/11/02 13:06:06;;;;;;;20.33;16.77;;;;;;;;;;5032383;28;20052;-84
2021/11/02 13:08:35;;;;;;;20.27;16.33;;;;;;;;;;5032640;28;20404;-84
2021/11/02 13:11:15;;;;;;;21.27;17.13;;;;;;;;;;5032677;28;20053;-85
2021/11/02 13:13:56;;;;;;;20.58;16.30;;;;;;;;;;5032992;28;20053;-85
2021/11/02 13:16:23;;;;;;;21.52;17.13;;;;;;;;;;5017542;28;20053;-84
2021/11/02 13:18:50;;;;;;;20.50;16.48;;;;;;;;;;5016046;28;20088;-84
2021/11/02 13:21:20;;;;;;;20.70;16.80;;;;;;;;;;5016175;28;20426;-86
2021/11/02 13:23:50;;;;;;;19.17;15.35;;;;;;;;;;5032676;28;20049;-84
2021/11/02 13:26:18;;;;;;;20.42;15.00;;;;;;;;;;5015472;28;20160;-83
2021/11/02 13:28:44;;;;;;;20.65;15.75;;;;;;;;;;5016486;28;20048;-84
2021/11/02 13:31:29;;;;;;;19.05;15.73;;;;;;;;;;5033099;28;20049;-84
2021/11/02 13:34:09;;;;;;;17.77;14.48;;;;;;;;;;5016429;28;20123;-84
2021/11/02 13:36:36;;;;;;;17.10;14.00;;;;;;;;;;5016564;28;20124;-84
2021/11/02 13:39:04;;;;;;;18.25;13.25;;;;;;;;;;5026199;28;20045;-85
2021/11/02 13:41:31;;;;;;;16.55;12.98;;;;;;;;;;5025512;28;20050;-84
2021/11/02 13:44:00;;;;;;;17.38;14.00;;;;;;;;;;5016292;28;20065;-88
2021/11/02 13:46:27;;;;;;;17.27;12.48;;;;;;;;;;5033406;28;20057;-85
2021/11/02 13:48:54;;;;;;;16.65;13.10;;;;;;;;;;5016598;28;20137;-84
2021/11/02 13:51:20;;;;;;;18.17;13.20;;;;;;;;;;5032174;28;20037;-84
2021/11/02 13:53:47;;;;;;;17.10;13.27;;;;;;;;;;5015829;28;20045;-85
2021/11/02 13:56:18;;;;;;;15.98;12.40;;;;;;;;;;5015584;28;20067;-85
2021/11/02 13:58:44;;;;;;;17.77;13.18;;;;;;;;;;5015356;28;20056;-84
2021/11/02 14:01:26;;;;;;;18.15;13.10;;;;;;;;;;5032198;28;20523;-84
2021/11/02 14:03:55;;;;;;;18.25;12.02;;;;;;;;;;5032512;28;20084;-84
2021/11/02 14:06:23;;;;;;;15.05;11.98;;;;;;;;;;5032005;28;20076;-85
2021/11/02 14:08:50;;;;;;;14.85;11.73;;;;;;;;;;5031683;28;20042;-85
2021/11/02 14:11:30;;;;;;;14.50;11.65;;;;;;;;;;5032114;28;20573;-84
2021/11/02 14:13:56;;;;;;;16.85;11.98;;;;;;;;;;5032188;28;20053;-84
2021/11/02 14:16:29;;;;;;;17.05;11.80;;;;;;;;;;5014702;28;20053;-85
2021/11/02 14:18:55;;;;;;;15.25;12.18;;;;;;;;;;5032111;28;20057;-84
2021/11/02 14:21:40;;;;;;;15.63;12.43;;;;;;;;;;5031480;28;20048;-85
2021/11/02 14:24:06;;;;;;;16.33;12.13;;;;;;;;;;5014871;28;20045;-85
2021/11/02 14:26:35;;;;;;;16.70;12.38;;;;;;;;;;5031894;28;20053;-85
2021/11/02 14:29:07;;;;;;;15.77;11.15;;;;;;;;;;5014992;28;20167;-87
2021/11/02 14:31:40;;;;;;;17.00;12.93;;;;;;;;;;5015495;28;20046;-83
2021/11/02 14:34:10;;;;;;;17.10;12.50;;;;;;;;;;5014534;28;20037;-85
2021/11/02 14:36:38;;;;;;;15.43;11.82;;;;;;;;;;5032292;28;20440;-85
2021/11/02 14:39:06;;;;;;;15.65;12.27;;;;;;;;;;5025067;28;20049;-85
2021/11/02 14:41:34;;;;;;;17.60;12.90;;;;;;;;;;5034118;28;20074;-86
2021/11/02 14:44:15;;;;;;;17.27;12.95;;;;;;;;;;5031061;28;20100;-87
2021/11/02 14:46:43;;;;;;;17.60;12.50;;;;;;;;;;5031303;28;20049;-85
2021/11/02 14:49:09;;;;;;;16.15;12.68;;;;;;;;;;5013877;28;20111;-85
2021/11/02 14:51:35;;;;;;;19.33;13.63;;;;;;;;;;5015341;28;20547;-85
2021/11/02 14:54:21;;;;;;;19.40;13.90;;;;;;;;;;5015139;28;20042;-86
2021/11/02 14:56:48;;;;;;;18.70;13.65;;;;;;;;;;5031633;28;20045;-85
2021/11/02 14:59:15;;;;;;;18.30;13.52;;;;;;;;;;5014134;28;20673;-85
2021/11/02 15:01:41;;;;;;;18.70;14.05;;;;;;;;;;5010693;28;20045;-85
2021/11/02 15:04:12;;;;;;;18.27;13.60;;;;;;;;;;5014553;28;20060;-85
2021/11/02 15:06:53;;;;;;;20.98;14.18;;;;;;;;;;5013963;28;20092;-86
2021/11/02 15:09:21;;;;;;;17.70;13.45;;;;;;;;;;5048967;28;20430;-85
2021/11/02 15:11:48;;;;;;;19.33;14.32;;;;;;;;;;5041795;28;20432;-86
2021/11/02 15:14:17;;;;;;;18.63;13.90;;;;;;;;;;5013778;28;20103;-86
2021/11/02 15:16:47;;;;;;;20.42;14.95;;;;;;;;;;5010780;28;20056;-86
2021/11/02 15:19:14;;;;;;;19.30;13.45;;;;;;;;;;5014905;28;20085;-85
2021/11/02 15:21:42;;;;;;;19.00;14.15;;;;;;;;;;5020459;28;20100;-86
2021/11/02 15:24:17;;;;;;;20.08;14.75;;;;;;;;;;5012343;28;20042;-86
2021/11/02 15:26:47;;;;;;;21.20;14.98;;;;;;;;;;4999996;28;20049;-86
2021/11/02 15:29:13;;;;;;;22.63;15.15;;;;;;;;;;5031816;28;20508;-86
2021/11/02 15:31:39;;;;;;;23.67;16.50;;;;;;;;;;5032719;28;20049;-86
2021/11/02 15:34:13;;;;;;;26.40;16.52;;;;;;;;;;5031751;28;20045;-87
2021/11/02 15:36:39;;;;;;;21.60;15.38;;;;;;;;;;5016194;28;20554;-87
2021/11/02 15:39:09;;;;;;;22.88;15.93;;;;;;;;;;5031103;28;20103;-87
2021/11/02 15:41:36;;;;;;;21.65;16.48;;;;;;;;;;5011974;28;20042;-87
2021/11/02 15:44:02;;;;;;;21.75;16.05;;;;;;;;;;5019982;28;20467;-86
2021/11/02 15:46:37;;;;;;;20.92;16.23;;;;;;;;;;5037413;28;20060;-86
2021/11/02 15:49:05;;;;;;;22.20;16.63;;;;;;;;;;5032726;28;20064;-88
2021/11/02 15:51:34;;;;;;;22.65;16.75;;;;;;;;;;5014650;28;20562;-86
2021/11/02 15:54:05;;;;;;;21.35;16.25;;;;;;;;;;5014095;28;20072;-85
2021/11/02 15:56:32;;;;;;;24.83;17.88;;;;;;;;;;5014532;28;20045;-86
2021/11/02 15:58:59;;;;;;;23.48;16.85;;;;;;;;;;5031669;28;20053;-86
2021/11/02 16:01:32;;;;;;;24.45;17.58;;;;;;;;;;5031126;28;20076;-85
2021/11/02 16:04:16;;;;;;;22.42;15.15;;;;;;;;;;5032164;28;20094;-85
2021/11/02 16:07:00;;;;;;;19.02;14.05;;;;;;;;;;5031445;28;20504;-86
2021/11/02 16:09:50;;;;;;;19.52;14.43;;;;;;;;;;5009638;28;20057;-86
2021/11/02 16:12:39;;;;;;;19.08;14.60;;;;;;;;;;4999589;28;20075;-86
2021/11/02 16:15:05;;;;;;;18.58;14.05;;;;;;;;;;5030967;28;20041;-89
2021/11/02 16:17:37;;;;;;;20.15;14.73;;;;;;;;;;5031452;28;20056;-87
2021/11/02 16:20:03;;;;;;;16.90;13.65;;;;;;;;;;5028669;28;20106;-87
2021/11/02 16:22:53;;;;;;;17.90;14.10;;;;;;;;;;5018231;28;20049;-86
2021/11/02 16:25:19;;;;;;;18.80;14.00;;;;;;;;;;5020489;28;20057;-86
2021/11/02 16:27:56;;;;;;;18.67;14.15;;;;;;;;;;5010339;28;20034;-86
2021/11/02 16:30:23;;;;;;;18.95;15.15;;;;;;;;;;5029323;28;20044;-87
2021/11/02 16:32:50;;;;;;;18.48;14.85;;;;;;;;;;5012859;28;20053;-86
2021/11/02 16:35:30;;;;;;;21.48;14.32;;;;;;;;;;5034945;28;20051;-86
2021/11/02 16:37:56;;;;;;;19.55;14.15;;;;;;;;;;5011200;28;20085;-87
2021/11/02 16:40:27;;;;;;;19.73;14.60;;;;;;;;;;5012336;28;20049;-86
2021/11/02 16:42:54;;;;;;;19.02;14.25;;;;;;;;;;5013242;28;20081;-87
2021/11/02 16:45:23;;;;;;;18.55;14.30;;;;;;;;;;5029329;28;20084;-90
2021/11/02 16:48:18;;;;;;;20.35;15.35;;;;;;;;;;5033323;28;20466;-92
2021/11/02 16:50:44;;;;;;;20.77;15.15;;;;;;;;;;5014656;28;20053;-91
2021/11/02 16:53:11;;;;;;;23.50;16.85;;;;;;;;;;5016198;28;20049;-90
2021/11/02 16:55:57;;;;;;;20.83;15.18;;;;;;;;;;5032728;28;20103;-91
2021/11/02 16:58:26;;;;;;;21.42;15.30;;;;;;;;;;5026970;28;20057;-89
2021/11/02 17:01:10;;;;;;;19.25;14.13;;;;;;;;;;5009883;28;20038;-86
2021/11/02 17:03:36;;;;;;;18.60;14.20;;;;;;;;;;5027104;28;20041;-86
2021/11/02 17:06:20;;;;;;;21.05;14.32;;;;;;;;;;5028277;28;20075;-86
2021/11/02 17:08:47;;;;;;;19.38;14.40;;;;;;;;;;5028316;28;20103;-85
2021/11/02 17:11:20;;;;;;;17.98;13.27;;;;;;;;;;5012254;28;20504;-89
2021/11/02 17:13:47;;;;;;;16.15;12.75;;;;;;;;;;5014226;28;20057;-87
2021/11/02 17:16:23;;;;;;;18.08;13.38;;;;;;;;;;5013366;28;20501;-88
2021/11/02 17:18:54;;;;;;;19.00;13.95;;;;;;;;;;5031065;28;20125;-88
2021/11/02 17:21:30;;;;;;;20.48;14.63;;;;;;;;;;5014401;28;20589;-88
2021/11/02 17:23:57;;;;;;;23.00;16.33;;;;;;;;;;5030834;28;20045;-88
2021/11/02 17:26:24;;;;;;;26.92;17.10;;;;;;;;;;5014917;28;20055;-87
2021/11/02 17:28:51;;;;;;;22.40;15.95;;;;;;;;;;5015583;28;20477;-86
2021/11/02 17:31:18;;;;;;;22.13;15.98;;;;;;;;;;5014241;28;20064;-85
2021/11/02 17:33:44;;;;;;;24.02;16.83;;;;;;;;;;5009150;28;20042;-85
2021/11/02 17:36:12;;;;;;;22.90;16.80;;;;;;;;;;4993830;28;20065;-86
2021/11/02 17:38:40;;;;;;;20.10;15.63;;;;;;;;;;5014834;28;20045;-86
2021/11/02 17:41:07;;;;;;;21.08;15.85;;;;;;;;;;5002163;28;20410;-88
2021/11/02 17:43:34;;;;;;;26.23;17.80;;;;;;;;;;5029891;28;20073;-84
2021/11/02 17:46:01;;;;;;;19.27;15.02;;;;;;;;;;5032787;28;20187;-84
2021/11/02 17:48:30;;;;;;;18.60;14.35;;;;;;;;;;5016934;28;20042;-85
2021/11/02 17:50:56;;;;;;;22.08;16.42;;;;;;;;;;5017307;28;20120;-84
2021/11/02 17:53:23;;;;;;;19.58;13.70;;;;;;;;;;5034086;28;20131;-85
2021/11/02 17:55:49;;;;;;;22.73;15.15;;;;;;;;;;5016791;28;20477;-85
2021/11/02 17:58:20;;;;;;;18.30;14.05;;;;;;;;;;5034324;28;20140;-85
2021/11/02 18:00:47;;;;;;;20.45;14.95;;;;;;;;;;5017201;28;20049;-85
2021/11/02 18:03:13;;;;;;;19.13;13.93;;;;;;;;;;5016608;28;20571;-85
2021/11/02 18:05:40;;;;;;;17.60;14.30;;;;;;;;;;5017446;28;20053;-85
2021/11/02 18:08:07;;;;;;;20.40;14.63;;;;;;;;;;5016886;28;20042;-88
2021/11/02 18:10:34;;;;;;;19.65;15.00;;;;;;;;;;5032654;28;20554;-85
2021/11/02 18:13:00;;;;;;;16.55;13.32;;;;;;;;;;5016440;28;20103;-86
2021/11/02 18:15:27;;;;;;;18.83;14.55;;;;;;;;;;5033064;28;20295;-85
2021/11/02 18:17:54;;;;;;;21.42;14.13;;;;;;;;;;5033421;28;20672;-86
2021/11/02 18:20:22;;;;;;;15.98;13.02;;;;;;;;;;5017539;28;20045;-87
2021/11/02 18:22:50;;;;;;;17.70;14.07;;;;;;;;;;5031760;28;20109;-86
2021/11/02 18:25:19;;;;;;;16.92;13.45;;;;;;;;;;5017271;28;20132;-85
2021/11/02 18:27:46;;;;;;;16.80;13.48;;;;;;;;;;5024354;28;20052;-85
2021/11/02 18:30:13;;;;;;;14.60;12.15;;;;;;;;;;5005758;28;20041;-85
2021/11/02 18:32:40;;;;;;;16.35;12.82;;;;;;;;;;5030082;28;20124;-85
2021/11/02 18:35:07;;;;;;;16.90;13.55;;;;;;;;;;5032475;28;20049;-88
2021/11/02 18:37:33;;;;;;;16.70;13.13;;;;;;;;;;5003854;28;20042;-85
2021/11/02 18:40:00;;;;;;;16.33;13.27;;;;;;;;;;5040547;28;20037;-84
2021/11/02 18:42:26;;;;;;;16.45;12.77;;;;;;;;;;5014157;28;20650;-87
2021/11/02 18:44:53;;;;;;;16.75;13.20;;;;;;;;;;5010025;28;20184;-86
2021/11/02 18:47:19;;;;;;;16.23;12.93;;;;;;;;;;5028406;28;20485;-86
2021/11/02 18:49:46;;;;;;;19.35;14.73;;;;;;;;;;5016243;28;20081;-85
2021/11/02 18:52:12;;;;;;;18.30;13.85;;;;;;;;;;5031664;28;20060;-86
2021/11/02 18:54:38;;;;;;;18.95;13.43;;;;;;;;;;5021555;28;20096;-86
2021/11/02 18:57:04;;;;;;;17.85;13.43;;;;;;;;;;5006347;28;20143;-86
2021/11/02 18:59:30;;;;;;;17.33;13.38;;;;;;;;;;5015914;28;20068;-86
2021/11/02 19:01:56;;;;;;;18.55;13.98;;;;;;;;;;5015473;28;20103;-86
2021/11/02 19:04:23;;;;;;;19.73;15.07;;;;;;;;;;5031104;28;20045;-86
2021/11/02 19:06:49;;;;;;;17.80;15.20;;;;;;;;;;5032145;28;20046;-85
2021/11/02 19:09:15;;;;;;;19.10;15.05;;;;;;;;;;5031832;28;20037;-86
2021/11/02 19:11:41;;;;;;;20.90;16.77;;;;;;;;;;5015971;28;20041;-86
2021/11/02 19:14:11;;;;;;;20.20;15.63;;;;;;;;;;5015898;28;20060;-87
2021/11/02 19:16:37;;;;;;;20.33;15.75;;;;;;;;;;4997017;28;20050;-86
2021/11/02 19:19:03;;;;;;;20.95;16.15;;;;;;;;;;5012476;28;20136;-86
2021/11/02 19:21:30;;;;;;;18.27;14.60;;;;;;;;;;5006507;28;20087;-86
2021/11/02 19:23:56;;;;;;;18.40;14.40;;;;;;;;;;5032554;28;20052;-86
2021/11/02 19:26:22;;;;;;;18.92;15.00;;;;;;;;;;5031766;28;20439;-86
2021/11/02 19:28:50;;;;;;;19.50;14.90;;;;;;;;;;5015781;28;20048;-85
2021/11/02 19:31:21;;;;;;;18.55;14.55;;;;;;;;;;5015268;28;20148;-86
2021/11/02 19:33:48;;;;;;;18.45;14.90;;;;;;;;;;5016093;28;20057;-86
2021/11/02 19:36:14;;;;;;;17.80;14.38;;;;;;;;;;5031776;28;20037;-86